Time;durP1;ratioP1;P1;durP2;ratioP2;P2;SDS_P1;SDS_P2;PMS_P1;PMS_P2;Temp;Humidity;BMP_temperature;BMP_pressure;BME280_temperature;BME280_humidity;BME280_pressure;Samples;Min_cycle;Max_cycle;Signal;HPM_P1;HPM_P2
2020/03/27 00:00:48;;;;;;;17.2;9.3;;;;;;;3.4;69.01953;955.7558;;;;
2020/03/27 00:03:12;;;;;;;18.6;9.4;;;;;;;3.44;69.34375;955.73;;;;
2020/03/27 00:05:37;;;;;;;19.2;9.5;;;;;;;3.45;68.50586;955.7311;;;;
2020/03/27 00:08:02;;;;;;;18.9;9.3;;;;;;;3.39;69.76465;955.7681;;;;
2020/03/27 00:11:28;;;;;;;18.2;9.4;;;;;;;3.34;70.25391;955.7104;;;;
2020/03/27 00:13:52;;;;;;;16.4;9.9;;;;;;;3.4;69.5498;955.6742;;;;
2020/03/27 00:16:18;;;;;;;20.5;9.9;;;;;;;3.41;69.39258;955.6117;;;;
2020/03/27 00:18:43;;;;;;;18.3;9.5;;;;;;;3.44;69.37793;955.577;;;;
2020/03/27 00:21:08;;;;;;;18.6;10.1;;;;;;;3.47;69.38184;955.5798;;;;
2020/03/27 00:23:33;;;;;;;15.3;9.3;;;;;;;3.37;69.16113;955.5346;;;;
2020/03/27 00:25:58;;;;;;;22.4;9.5;;;;;;;3.37;69.19434;955.5087;;;;
2020/03/27 00:28:23;;;;;;;16.4;9.5;;;;;;;3.38;69.0166;955.4587;;;;
2020/03/27 00:30:48;;;;;;;19.3;9.7;;;;;;;3.42;69.0332;955.4286;;;;
2020/03/27 00:33:13;;;;;;;16.5;9.4;;;;;;;3.4;68.91602;955.3987;;;;
2020/03/27 00:35:38;;;;;;;19;9.5;;;;;;;3.33;69.93457;955.3961;;;;
2020/03/27 00:38:03;;;;;;;19.2;9.9;;;;;;;3.37;69.08105;955.3575;;;;
2020/03/27 00:40:29;;;;;;;19.3;10.2;;;;;;;3.4;69.14258;955.3803;;;;
2020/03/27 00:42:54;;;;;;;15.9;9.6;;;;;;;3.34;69.40527;955.3765;;;;
2020/03/27 00:45:19;;;;;;;20;10.3;;;;;;;3.26;70.18555;955.3654;;;;
2020/03/27 00:47:44;;;;;;;15.5;9.5;;;;;;;3.34;69.4502;955.3588;;;;
2020/03/27 00:50:11;;;;;;;22.8;9.9;;;;;;;3.19;70.08203;955.2957;;;;
2020/03/27 00:52:37;;;;;;;18.4;9.3;;;;;;;3.29;69.31738;955.3404;;;;
2020/03/27 00:55:13;;;;;;;14.8;10.2;;;;;;;3.17;70.05664;955.3196;;;;
2020/03/27 00:57:25;;;;;;;18.7;9.6;;;;;;;3.21;69.73535;955.3158;;;;
2020/03/27 00:59:49;;;;;;;15.5;9.2;;;;;;;3.18;70.18359;955.3203;;;;
2020/03/27 01:02:16;;;;;;;18.1;10.5;;;;;;;3.23;70.04395;955.26;;;;
2020/03/27 01:04:39;;;;;;;20.7;10.7;;;;;;;3.15;70.39258;955.212;;;;
2020/03/27 01:07:07;;;;;;;14.6;10.1;;;;;;;3.07;71.0127;955.1997;;;;
2020/03/27 01:09:29;;;;;;;21.6;10.3;;;;;;;3.16;70.54102;955.1785;;;;
2020/03/27 01:11:56;;;;;;;18.4;9.5;;;;;;;3.11;71.13184;955.0917;;;;
2020/03/27 01:14:20;;;;;;;15.2;9.7;;;;;;;3.1;70.9043;955.0786;;;;
2020/03/27 01:16:45;;;;;;;16;9.9;;;;;;;3.17;70.62207;955.0748;;;;
2020/03/27 01:19:10;;;;;;;15.3;9.6;;;;;;;3.19;70.63574;955.0719;;;;
2020/03/27 01:21:35;;;;;;;20.1;10.4;;;;;;;3.03;71.1875;955.0576;;;;
2020/03/27 01:24:00;;;;;;;19.4;10.3;;;;;;;3.08;71.02539;955.0592;;;;
2020/03/27 01:26:25;;;;;;;17.5;9.9;;;;;;;3.05;71.28223;955.0787;;;;
2020/03/27 01:28:50;;;;;;;15.4;9.5;;;;;;;3.12;70.9082;955.1055;;;;
2020/03/27 01:31:15;;;;;;;16.7;9.8;;;;;;;3.07;71.55566;955.0936;;;;
2020/03/27 01:33:41;;;;;;;17.4;9.9;;;;;;;3;71.79199;955.0948;;;;
2020/03/27 01:36:05;;;;;;;17.2;10.3;;;;;;;3.15;71.75195;955.0776;;;;
2020/03/27 01:38:30;;;;;;;17.6;10.1;;;;;;;3;72.20117;955.1488;;;;
2020/03/27 01:40:55;;;;;;;18.6;10.4;;;;;;;3.11;71.5498;955.1449;;;;
2020/03/27 01:43:20;;;;;;;16.5;9.7;;;;;;;3.07;72.04199;955.0637;;;;
2020/03/27 01:45:46;;;;;;;14.9;9.7;;;;;;;3.09;71.92188;955.0793;;;;
2020/03/27 01:48:11;;;;;;;16.9;9.4;;;;;;;3.12;71.85742;955.1092;;;;
2020/03/27 01:50:36;;;;;;;14.6;9.4;;;;;;;3.11;71.77637;955.0773;;;;
2020/03/27 01:53:01;;;;;;;12.8;8.9;;;;;;;3.13;71.40723;955.1708;;;;
2020/03/27 01:55:26;;;;;;;17;10;;;;;;;3.09;71.66016;955.1074;;;;
2020/03/27 01:57:51;;;;;;;17.6;9.8;;;;;;;3.03;72.39648;955.1161;;;;
2020/03/27 02:00:16;;;;;;;16.4;9.7;;;;;;;3.08;71.65918;955.1297;;;;
2020/03/27 02:02:41;;;;;;;16.9;9.7;;;;;;;3.06;71.97266;955.1103;;;;
2020/03/27 02:05:06;;;;;;;14.7;9.6;;;;;;;3.04;71.96973;955.1078;;;;
2020/03/27 02:08:15;;;;;;;15.7;9.9;;;;;;;3.07;72.31348;955.1314;;;;
2020/03/27 02:10:40;;;;;;;16.2;9.5;;;;;;;3.17;71.21191;955.1349;;;;
2020/03/27 02:13:05;;;;;;;15.8;9.9;;;;;;;3.12;72.19824;955.1376;;;;
2020/03/27 02:15:31;;;;;;;15.5;9.5;;;;;;;3.03;71.92285;955.1411;;;;
2020/03/27 02:17:56;;;;;;;16.2;9.5;;;;;;;3.04;71.84473;955.1697;;;;
2020/03/27 02:20:21;;;;;;;19.3;10;;;;;;;3.11;71.44824;955.1872;;;;
2020/03/27 02:22:46;;;;;;;18.2;9.4;;;;;;;3.16;71.63867;955.218;;;;
2020/03/27 02:25:12;;;;;;;15.2;9.5;;;;;;;3.08;71.72656;955.295;;;;
2020/03/27 02:27:37;;;;;;;16.6;9.9;;;;;;;3.05;71.79004;955.2153;;;;
2020/03/27 02:30:02;;;;;;;14.9;10;;;;;;;3.07;72.12109;955.2617;;;;
2020/03/27 02:32:31;;;;;;;18.4;10;;;;;;;2.98;72.5918;955.2863;;;;
2020/03/27 02:34:52;;;;;;;15.3;9.5;;;;;;;2.98;71.91309;955.2033;;;;
2020/03/27 02:39:42;;;;;;;15.5;9.4;;;;;;;3.06;71.80273;955.23;;;;
2020/03/27 02:42:10;;;;;;;19.9;9.8;;;;;;;3.06;71.88184;955.3373;;;;
2020/03/27 02:49:30;;;;;;;16.6;9.6;;;;;;;3.06;72.33398;955.2068;;;;
2020/03/27 02:51:48;;;;;;;14.8;9;;;;;;;3.08;72.28125;955.1655;;;;
2020/03/27 02:54:19;;;;;;;16.4;9.8;;;;;;;3.06;72.84375;955.1527;;;;
2020/03/27 02:59:08;;;;;;;13.1;8.9;;;;;;;2.89;73.09668;955.2053;;;;
2020/03/27 03:01:33;;;;;;;16.8;9.5;;;;;;;2.93;73.16113;955.2073;;;;
2020/03/27 03:03:58;;;;;;;17.2;9.5;;;;;;;2.85;73.96094;955.1083;;;;
2020/03/27 03:06:23;;;;;;;14;9.2;;;;;;;2.94;73.24023;955.0739;;;;
2020/03/27 03:08:55;;;;;;;18.5;9.9;;;;;;;2.95;73.15234;955.0446;;;;
2020/03/27 03:11:20;;;;;;;15.2;10.2;;;;;;;2.88;74.36133;955.0483;;;;
2020/03/27 03:13:45;;;;;;;16.9;9.6;;;;;;;2.83;73.71875;955.0798;;;;
2020/03/27 03:16:10;;;;;;;20.6;9.7;;;;;;;2.78;74.0498;955.085;;;;
2020/03/27 03:18:35;;;;;;;15.6;9.4;;;;;;;2.85;73.9043;955.0584;;;;
2020/03/27 03:21:00;;;;;;;18.1;9.4;;;;;;;2.81;73.93066;955.0685;;;;
2020/03/27 03:23:25;;;;;;;14.5;9.3;;;;;;;2.8;74.04199;955.0295;;;;
2020/03/27 03:25:50;;;;;;;15.4;9.4;;;;;;;2.73;74.84277;955.1242;;;;
2020/03/27 03:30:48;;;;;;;15.3;9.5;;;;;;;2.77;74.12793;955.0122;;;;
2020/03/27 03:33:06;;;;;;;15.6;9.8;;;;;;;2.72;74.29883;955.0869;;;;
2020/03/27 03:35:36;;;;;;;16.1;9.7;;;;;;;2.84;73.68652;955.0117;;;;
2020/03/27 03:37:56;;;;;;;16.1;9.5;;;;;;;2.84;74.77344;955.0153;;;;
2020/03/27 03:42:46;;;;;;;17.5;9.9;;;;;;;2.68;75.03711;955.0181;;;;
2020/03/27 03:45:40;;;;;;;16;9.5;;;;;;;2.63;75.57324;955.0189;;;;
2020/03/27 03:50:11;;;;;;;17.5;10;;;;;;;2.49;75.48926;955.1188;;;;
2020/03/27 03:52:36;;;;;;;15.3;9.9;;;;;;;2.44;75.95605;955.0508;;;;
2020/03/27 03:55:10;;;;;;;14.2;9.9;;;;;;;2.58;75.34863;955.0415;;;;
2020/03/27 03:57:27;;;;;;;16.2;9.6;;;;;;;2.67;74.73047;955.115;;;;
2020/03/27 03:59:52;;;;;;;15.2;9.4;;;;;;;2.8;74.30078;955.0761;;;;
2020/03/27 04:02:26;;;;;;;14.3;9.5;;;;;;;2.81;73.8623;955.058;;;;
2020/03/27 04:04:51;;;;;;;13.5;9.5;;;;;;;2.82;73.89844;955.0363;;;;
2020/03/27 04:07:16;;;;;;;20.5;9.5;;;;;;;2.93;73.15918;954.9993;;;;
2020/03/27 04:09:41;;;;;;;17.1;9.4;;;;;;;2.9;73.48242;954.9635;;;;
2020/03/27 04:12:07;;;;;;;16;9.3;;;;;;;2.89;73.37793;955.0162;;;;
2020/03/27 04:14:32;;;;;;;14.7;9.7;;;;;;;2.85;73.68848;955.009;;;;
2020/03/27 04:16:57;;;;;;;13;9.1;;;;;;;2.84;73.7334;955.0411;;;;
2020/03/27 04:19:22;;;;;;;18.2;9.9;;;;;;;2.79;74.7168;955.0661;;;;
2020/03/27 04:21:47;;;;;;;15.8;10.2;;;;;;;2.76;74.49707;955.098;;;;
2020/03/27 04:24:13;;;;;;;13.9;9.3;;;;;;;2.77;74.53418;955.0316;;;;
2020/03/27 04:26:38;;;;;;;16.4;9.8;;;;;;;2.72;74.72852;955.0636;;;;
2020/03/27 04:29:03;;;;;;;15.5;10;;;;;;;2.68;75.64844;955.0698;;;;
2020/03/27 04:31:28;;;;;;;18;10.3;;;;;;;2.72;74.88672;955.0616;;;;
2020/03/27 04:33:53;;;;;;;18;11.3;;;;;;;2.75;75.16309;955.117;;;;
2020/03/27 04:36:18;;;;;;;14.8;10;;;;;;;2.68;76.12305;955.1213;;;;
2020/03/27 04:38:43;;;;;;;19.7;11;;;;;;;2.69;75.75098;955.1382;;;;
2020/03/27 04:41:08;;;;;;;19.9;11.2;;;;;;;2.72;76.34473;955.0933;;;;
2020/03/27 04:43:33;;;;;;;15.2;10.5;;;;;;;2.54;76.44824;955.1149;;;;
2020/03/27 04:45:58;;;;;;;16.5;10.8;;;;;;;2.62;76.03125;955.1291;;;;
2020/03/27 04:48:23;;;;;;;17.2;11.5;;;;;;;2.51;77.26563;955.1153;;;;
2020/03/27 04:51:06;;;;;;;21.2;11.7;;;;;;;2.39;77.60742;955.123;;;;
2020/03/27 04:53:13;;;;;;;15;10.5;;;;;;;2.47;76.58301;955.1414;;;;
2020/03/27 04:55:38;;;;;;;18.9;11.2;;;;;;;2.35;78.11914;955.1716;;;;
2020/03/27 04:58:04;;;;;;;17.2;11.5;;;;;;;2.34;78.5918;955.1825;;;;
2020/03/27 05:00:29;;;;;;;16.8;10.9;;;;;;;2.26;77.97656;955.1169;;;;
2020/03/27 05:02:54;;;;;;;21.9;11.2;;;;;;;2.06;79.01367;955.1886;;;;
2020/03/27 05:05:19;;;;;;;17.8;10.9;;;;;;;2.07;78.84473;955.1418;;;;
2020/03/27 05:07:45;;;;;;;19.4;11.1;;;;;;;2.07;79.57813;955.2198;;;;
2020/03/27 05:10:13;;;;;;;18.1;11.8;;;;;;;2.05;78.86426;955.2349;;;;
2020/03/27 05:12:39;;;;;;;18.3;11.5;;;;;;;1.95;79.69141;955.2778;;;;
2020/03/27 05:15:04;;;;;;;19.5;12;;;;;;;1.83;79.7373;955.3127;;;;
2020/03/27 05:17:32;;;;;;;16.8;11.1;;;;;;;1.9;80.16797;955.3641;;;;
2020/03/27 05:19:50;;;;;;;20.1;11.7;;;;;;;2.11;78.59375;955.4055;;;;
2020/03/27 05:22:15;;;;;;;20.2;11.6;;;;;;;2.07;79.12695;955.3923;;;;
2020/03/27 05:24:40;;;;;;;20;11.7;;;;;;;1.99;79.20215;955.3769;;;;
2020/03/27 05:27:05;;;;;;;22.3;12.4;;;;;;;1.94;79.40625;955.3414;;;;
2020/03/27 05:29:30;;;;;;;18.4;11.4;;;;;;;1.98;78.97656;955.3717;;;;
2020/03/27 05:31:55;;;;;;;16.4;11.2;;;;;;;2.11;78.64844;955.3844;;;;
2020/03/27 05:34:21;;;;;;;19.7;12;;;;;;;2.15;78.27246;955.3814;;;;
2020/03/27 05:36:46;;;;;;;17.2;11.4;;;;;;;2.19;78.61914;955.3867;;;;
2020/03/27 05:39:11;;;;;;;15.2;11.4;;;;;;;2.15;78.69043;955.3677;;;;
2020/03/27 05:41:36;;;;;;;19.8;11.5;;;;;;;1.99;79.21289;955.454;;;;
2020/03/27 05:44:01;;;;;;;16.3;11.5;;;;;;;2.06;79.2373;955.4489;;;;
2020/03/27 05:46:27;;;;;;;20;11.5;;;;;;;2.13;79.53125;955.5092;;;;
2020/03/27 05:49:10;;;;;;;22;12.4;;;;;;;2.13;78.85645;955.4981;;;;
2020/03/27 05:51:35;;;;;;;19.6;11.4;;;;;;;2.13;80.0752;955.5222;;;;
2020/03/27 05:54:01;;;;;;;16.2;11.6;;;;;;;2.35;78.45801;955.5034;;;;
2020/03/27 05:56:30;;;;;;;21.2;12.3;;;;;;;2.5;77.41309;955.5222;;;;
2020/03/27 05:58:51;;;;;;;20;12.4;;;;;;;2.33;78.58789;955.5547;;;;
2020/03/27 06:01:16;;;;;;;20.1;12.5;;;;;;;2.33;78.27148;955.4864;;;;
2020/03/27 06:03:41;;;;;;;18.6;12.4;;;;;;;2.35;78.25293;955.5251;;;;
2020/03/27 06:06:07;;;;;;;19.7;12.4;;;;;;;2.27;78.62305;955.5832;;;;
2020/03/27 06:08:31;;;;;;;22.7;12.1;;;;;;;2.4;78.27344;955.628;;;;
2020/03/27 06:11:37;;;;;;;20.9;13;;;;;;;2.41;79.33691;955.5945;;;;
2020/03/27 06:13:21;;;;;;;20.4;12.4;;;;;;;2.49;78.29004;955.5861;;;;
2020/03/27 06:15:47;;;;;;;20.3;13.3;;;;;;;2.55;77.96191;955.5837;;;;
2020/03/27 06:18:12;;;;;;;26;16.8;;;;;;;2.61;77.92969;955.5961;;;;
2020/03/27 06:20:37;;;;;;;25.3;17.1;;;;;;;2.73;77.41992;955.6631;;;;
2020/03/27 06:23:02;;;;;;;28;20.4;;;;;;;2.65;77.7666;955.6409;;;;
2020/03/27 06:25:28;;;;;;;27.4;20.3;;;;;;;2.89;77.4043;955.6591;;;;
2020/03/27 06:27:53;;;;;;;30;19.5;;;;;;;2.87;77.32129;955.6345;;;;
2020/03/27 06:30:18;;;;;;;25.5;19.2;;;;;;;2.93;77.9873;955.6667;;;;
2020/03/27 06:32:55;;;;;;;28.8;19.4;;;;;;;3.07;78.09277;955.5956;;;;
2020/03/27 06:35:08;;;;;;;25.1;16.8;;;;;;;3.08;78.13965;955.6071;;;;
2020/03/27 06:37:33;;;;;;;19.1;11.8;;;;;;;3.22;76.3877;955.6097;;;;
2020/03/27 06:40:03;;;;;;;18.9;12.8;;;;;;;3.35;77.2832;955.6355;;;;
2020/03/27 06:42:36;;;;;;;19.3;10.4;;;;;;;3.57;75.34277;955.7205;;;;
2020/03/27 06:44:48;;;;;;;20.9;10.2;;;;;;;3.58;75.8877;955.6806;;;;
2020/03/27 06:47:13;;;;;;;19.4;9.8;;;;;;;3.59;75.60645;955.6578;;;;
2020/03/27 06:49:39;;;;;;;18.5;9.6;;;;;;;3.75;73.50488;955.6872;;;;
2020/03/27 06:52:04;;;;;;;19.2;9.3;;;;;;;3.77;73.67871;955.6647;;;;
2020/03/27 06:54:29;;;;;;;20.6;9.5;;;;;;;3.85;73.91992;955.6975;;;;
2020/03/27 06:56:54;;;;;;;19.4;9.5;;;;;;;4.01;73.60645;955.7242;;;;
2020/03/27 06:59:19;;;;;;;20.6;9.1;;;;;;;3.97;72.6582;955.7488;;;;
2020/03/27 07:01:44;;;;;;;21.3;9.1;;;;;;;4.07;73.19824;955.7366;;;;
2020/03/27 07:04:10;;;;;;;18.6;8.9;;;;;;;4.01;72.25781;955.7706;;;;
2020/03/27 07:06:36;;;;;;;19.4;9.4;;;;;;;4.18;71.99219;955.7534;;;;
2020/03/27 07:09:00;;;;;;;20.3;9.7;;;;;;;4.17;72.14941;955.7135;;;;
2020/03/27 07:11:25;;;;;;;19.3;9.5;;;;;;;4.27;71.53125;955.83;;;;
2020/03/27 07:13:50;;;;;;;19.1;9.8;;;;;;;4.34;71.05371;955.8223;;;;
2020/03/27 07:16:15;;;;;;;18.2;9.8;;;;;;;4.53;70.40527;955.7855;;;;
2020/03/27 07:18:41;;;;;;;21.6;10.6;;;;;;;4.51;70.25488;955.7589;;;;
2020/03/27 07:21:06;;;;;;;21.4;9.7;;;;;;;4.62;69.76172;955.7709;;;;
2020/03/27 07:23:31;;;;;;;17.7;9.8;;;;;;;4.62;70.79492;955.758;;;;
2020/03/27 07:25:57;;;;;;;21.8;10.1;;;;;;;4.72;69.82324;955.8493;;;;
2020/03/27 07:28:22;;;;;;;19.5;9.7;;;;;;;4.8;69.33691;955.8871;;;;
2020/03/27 07:30:47;;;;;;;16.2;8.9;;;;;;;4.87;69.30176;955.8247;;;;
2020/03/27 07:33:12;;;;;;;17.5;9.2;;;;;;;4.87;70.00586;955.8586;;;;
2020/03/27 07:35:37;;;;;;;19.8;9.2;;;;;;;4.97;70.08984;955.863;;;;
2020/03/27 07:38:02;;;;;;;22.3;10;;;;;;;5.15;68.92773;955.9168;;;;
2020/03/27 07:40:27;;;;;;;22.2;9.8;;;;;;;5.15;69.54199;955.9217;;;;
2020/03/27 07:42:52;;;;;;;19.1;9.7;;;;;;;5.19;69.42383;955.9263;;;;
2020/03/27 07:45:18;;;;;;;22.3;9.8;;;;;;;5.36;69.89453;955.9481;;;;
2020/03/27 07:47:43;;;;;;;19.5;9.4;;;;;;;5.59;69.21484;955.991;;;;
2020/03/27 07:50:08;;;;;;;15.9;8.3;;;;;;;5.79;67.58496;955.9164;;;;
2020/03/27 07:52:33;;;;;;;16.7;8.6;;;;;;;5.9;67;955.9119;;;;
2020/03/27 07:54:58;;;;;;;20.8;8.8;;;;;;;5.95;67.53125;955.9729;;;;
2020/03/27 07:57:23;;;;;;;20.1;8.8;;;;;;;5.85;67.36719;955.9377;;;;
2020/03/27 07:59:48;;;;;;;18;8.5;;;;;;;6.02;67.78125;955.9927;;;;
2020/03/27 08:02:13;;;;;;;19.1;8.5;;;;;;;6.14;66.93555;955.9526;;;;
2020/03/27 08:04:38;;;;;;;19.8;9.2;;;;;;;6.11;66.98633;955.9372;;;;
2020/03/27 08:07:03;;;;;;;21.9;8.8;;;;;;;6.2;66.60352;955.9269;;;;
2020/03/27 08:09:28;;;;;;;18.4;8.3;;;;;;;6.26;66.95313;955.9885;;;;
2020/03/27 08:11:54;;;;;;;16.8;7.6;;;;;;;6.42;66.34082;956.0464;;;;
2020/03/27 08:14:19;;;;;;;20.1;8.1;;;;;;;6.41;65.98535;956.0658;;;;
2020/03/27 08:16:44;;;;;;;17.3;8;;;;;;;6.6;65.46777;956.1454;;;;
2020/03/27 08:20:33;;;;;;;20.4;8;;;;;;;6.65;65.76074;956.1155;;;;
2020/03/27 08:21:34;;;;;;;17.6;8.7;;;;;;;6.71;66.20215;956.0928;;;;
2020/03/27 08:23:59;;;;;;;17;8;;;;;;;6.85;65.80273;956.0957;;;;
2020/03/27 08:26:24;;;;;;;18.1;7.6;;;;;;;7;65.40332;956.1584;;;;
2020/03/27 08:28:49;;;;;;;17.2;8.4;;;;;;;7.24;64.78809;956.1766;;;;
2020/03/27 08:31:15;;;;;;;16.8;8.1;;;;;;;7.12;64.51953;956.1889;;;;
2020/03/27 08:33:40;;;;;;;22.7;8.2;;;;;;;6.87;65.46289;956.1847;;;;
2020/03/27 08:36:05;;;;;;;17.5;7.4;;;;;;;7.12;65.14746;956.1584;;;;
2020/03/27 08:38:30;;;;;;;17.3;7.3;;;;;;;7.45;64.22656;956.1905;;;;
2020/03/27 08:40:55;;;;;;;16;7;;;;;;;7.44;64.46387;956.1803;;;;
2020/03/27 08:43:20;;;;;;;17.8;7;;;;;;;7.42;64.07227;956.1873;;;;
2020/03/27 08:45:46;;;;;;;17.5;6.8;;;;;;;7.5;63.69629;956.1387;;;;
2020/03/27 08:48:11;;;;;;;19.1;6.9;;;;;;;7.56;63.26074;956.142;;;;
2020/03/27 08:50:36;;;;;;;14.3;7;;;;;;;7.77;62.84473;956.1714;;;;
2020/03/27 08:53:01;;;;;;;18.1;7.3;;;;;;;7.75;62.91016;956.2125;;;;
2020/03/27 08:55:26;;;;;;;18.2;7.6;;;;;;;7.83;63.02441;956.2645;;;;
2020/03/27 08:59:34;;;;;;;17.5;7.1;;;;;;;7.93;61.63184;956.2525;;;;
2020/03/27 09:04:13;;;;;;;15.8;7.1;;;;;;;8.16;61.36914;956.3201;;;;
2020/03/27 09:06:37;;;;;;;15.9;7.1;;;;;;;8.26;61.16602;956.3649;;;;
2020/03/27 09:09:02;;;;;;;17.8;6.9;;;;;;;8.13;62.08594;956.3276;;;;
2020/03/27 09:11:27;;;;;;;18;7.3;;;;;;;8.26;62.08105;956.4557;;;;
2020/03/27 09:13:52;;;;;;;16.1;7;;;;;;;8.25;60.73926;956.426;;;;
2020/03/27 09:16:17;;;;;;;14.6;6.5;;;;;;;8.37;60.86035;956.4652;;;;
2020/03/27 09:18:42;;;;;;;16.6;7.4;;;;;;;8.35;60.73047;956.504;;;;
2020/03/27 09:21:07;;;;;;;17.9;7.5;;;;;;;8.25;61.56348;956.4536;;;;
2020/03/27 09:23:32;;;;;;;15;7.1;;;;;;;8.18;62.40137;956.3848;;;;
2020/03/27 09:25:57;;;;;;;21.5;7.4;;;;;;;8.16;61.63086;956.3703;;;;
2020/03/27 09:28:22;;;;;;;16;7.2;;;;;;;8.2;62.23242;956.3951;;;;
2020/03/27 09:30:48;;;;;;;16;7;;;;;;;8.36;61.47656;956.3937;;;;
2020/03/27 09:33:13;;;;;;;20.5;7.3;;;;;;;8.41;61.50586;956.3424;;;;
2020/03/27 09:35:38;;;;;;;14.3;6.8;;;;;;;8.59;62.17383;956.3983;;;;
2020/03/27 09:38:03;;;;;;;15.2;7;;;;;;;8.75;61.6123;956.3812;;;;
2020/03/27 09:40:28;;;;;;;16.6;7.5;;;;;;;8.87;61.62891;956.4666;;;;
2020/03/27 09:42:53;;;;;;;23.7;7.6;;;;;;;9.17;60.35254;956.4595;;;;
2020/03/27 09:45:18;;;;;;;17.2;7;;;;;;;9.28;58.94629;956.521;;;;
2020/03/27 09:47:43;;;;;;;18.7;7;;;;;;;9.58;58.74512;956.5363;;;;
2020/03/27 09:50:08;;;;;;;20.3;6.9;;;;;;;9.77;58.12988;956.6559;;;;
2020/03/27 09:52:33;;;;;;;18.5;7.3;;;;;;;9.62;59.34863;956.6362;;;;
2020/03/27 09:54:58;;;;;;;16;6.8;;;;;;;9.74;58.60645;956.6448;;;;
2020/03/27 09:57:23;;;;;;;16.4;6.9;;;;;;;9.69;58.00391;956.6067;;;;
2020/03/27 10:04:44;;;;;;;22.5;6.8;;;;;;;10.01;57.34473;956.4792;;;;
2020/03/27 10:07:12;;;;;;;20.7;7.1;;;;;;;10.1;56.67773;956.5098;;;;
2020/03/27 10:09:29;;;;;;;19.8;7.2;;;;;;;9.94;57.34668;956.5823;;;;
2020/03/27 10:11:54;;;;;;;17.6;7.5;;;;;;;9.79;57.23535;956.5391;;;;
2020/03/27 10:14:19;;;;;;;18.1;6.9;;;;;;;10.12;56.78418;956.5176;;;;
2020/03/27 10:16:44;;;;;;;15.2;7;;;;;;;9.99;57.19336;956.4205;;;;
2020/03/27 10:19:09;;;;;;;18.7;7.5;;;;;;;10.07;57.375;956.4321;;;;
2020/03/27 10:21:34;;;;;;;20.2;7.1;;;;;;;10.11;56.41504;956.4761;;;;
2020/03/27 10:23:59;;;;;;;17.4;7.3;;;;;;;10.11;56.875;956.4033;;;;
2020/03/27 10:26:24;;;;;;;18.7;7.6;;;;;;;10.27;57.18359;956.3908;;;;
2020/03/27 10:28:50;;;;;;;20.1;7.1;;;;;;;10.02;57.16113;956.4426;;;;
2020/03/27 10:31:15;;;;;;;22.7;7.6;;;;;;;10.23;56.24707;956.3664;;;;
2020/03/27 10:33:40;;;;;;;25.4;8.6;;;;;;;10.31;56.50977;956.4059;;;;
2020/03/27 10:36:05;;;;;;;20.8;7.6;;;;;;;10.54;56.0791;956.3482;;;;
2020/03/27 10:38:30;;;;;;;24.3;7.9;;;;;;;10.57;55.87695;956.3242;;;;
2020/03/27 10:40:55;;;;;;;20.6;7.6;;;;;;;10.65;55.29883;956.3478;;;;
2020/03/27 10:43:20;;;;;;;21.6;7.8;;;;;;;10.71;55.72266;956.3506;;;;
2020/03/27 10:45:45;;;;;;;22.5;7.5;;;;;;;11;55.02344;956.3052;;;;
2020/03/27 10:48:10;;;;;;;19.8;8.1;;;;;;;11.01;55.13867;956.3353;;;;
2020/03/27 10:50:35;;;;;;;20.4;8;;;;;;;11.17;55.0332;956.3586;;;;
2020/03/27 10:53:00;;;;;;;20.7;7.4;;;;;;;11.34;54.99609;956.3296;;;;
2020/03/27 10:55:25;;;;;;;20.3;7.8;;;;;;;11.34;54.69629;956.3774;;;;
2020/03/27 10:57:50;;;;;;;21.1;7.2;;;;;;;11.13;54.90039;956.3085;;;;
2020/03/27 11:00:15;;;;;;;25.9;7.9;;;;;;;11.3;55.01465;956.3379;;;;
2020/03/27 11:02:44;;;;;;;20.6;6.8;;;;;;;11.32;54.95801;956.3448;;;;
2020/03/27 11:05:06;;;;;;;23.9;7.9;;;;;;;11.29;54.45996;956.2719;;;;
2020/03/27 11:07:31;;;;;;;20;7.2;;;;;;;11.28;54.89551;956.2881;;;;
2020/03/27 11:09:56;;;;;;;24.4;7.6;;;;;;;11.24;55.52539;956.3079;;;;
2020/03/27 11:12:21;;;;;;;21.1;7.8;;;;;;;11.4;55.5332;956.2209;;;;
2020/03/27 11:14:46;;;;;;;29.8;8.1;;;;;;;11.58;54.4502;956.279;;;;
2020/03/27 11:17:11;;;;;;;23;7.2;;;;;;;11.61;54.26758;956.2744;;;;
2020/03/27 11:19:36;;;;;;;23.8;6.7;;;;;;;11.71;54.11914;956.2026;;;;
2020/03/27 11:22:01;;;;;;;28;7.9;;;;;;;11.83;54.28613;956.1841;;;;
2020/03/27 11:24:26;;;;;;;22.4;7.3;;;;;;;11.88;54.67285;956.1383;;;;
2020/03/27 11:26:51;;;;;;;24.6;7.2;;;;;;;12.15;53.38867;956.2393;;;;
2020/03/27 11:29:16;;;;;;;19.2;6.9;;;;;;;12.34;52.36035;956.2347;;;;
2020/03/27 11:31:42;;;;;;;19.5;6.8;;;;;;;12.38;52.43555;956.1948;;;;
2020/03/27 11:34:07;;;;;;;21.6;7.5;;;;;;;12.28;53.24414;956.1772;;;;
2020/03/27 11:36:32;;;;;;;20.7;6.9;;;;;;;12.32;53.34082;956.1283;;;;
2020/03/27 11:38:58;;;;;;;23.2;7.7;;;;;;;12.61;52.25488;956.158;;;;
2020/03/27 11:41:22;;;;;;;19.6;7.2;;;;;;;12.83;51.91113;956.1152;;;;
2020/03/27 11:43:47;;;;;;;22.3;7.1;;;;;;;12.74;51.54297;956.0915;;;;
2020/03/27 11:46:12;;;;;;;23.2;7.5;;;;;;;12.63;52.4873;956.0461;;;;
2020/03/27 11:48:37;;;;;;;25.7;9.8;;;;;;;12.99;52.0918;956.0846;;;;
2020/03/27 11:51:03;;;;;;;17.6;7.3;;;;;;;13.26;51.33789;956.0491;;;;
2020/03/27 11:53:28;;;;;;;20.6;6.7;;;;;;;13.23;50.52344;956.1174;;;;
2020/03/27 11:55:53;;;;;;;20.3;6.6;;;;;;;13.25;49.77246;955.9565;;;;
2020/03/27 11:58:18;;;;;;;20.5;7.1;;;;;;;13.21;50.24316;955.9855;;;;
2020/03/27 12:00:43;;;;;;;20.9;6.5;;;;;;;13.19;50.00977;955.9665;;;;
2020/03/27 12:03:09;;;;;;;21.8;6.5;;;;;;;13.22;50.35938;956.0339;;;;
2020/03/27 12:05:34;;;;;;;19;6.3;;;;;;;13.15;50.69922;955.9894;;;;
2020/03/27 12:08:00;;;;;;;19;6.6;;;;;;;13.31;50.26563;956.0313;;;;
2020/03/27 12:10:25;;;;;;;17.5;6.1;;;;;;;13.41;49.81445;956.0069;;;;
2020/03/27 12:12:50;;;;;;;20.6;6.2;;;;;;;13.51;48.92188;956.0282;;;;
2020/03/27 12:15:15;;;;;;;16.1;6.4;;;;;;;13.36;49.62305;955.9869;;;;
2020/03/27 12:17:41;;;;;;;20.4;6.1;;;;;;;13.58;48.61621;956.0662;;;;
2020/03/27 12:20:05;;;;;;;17.7;6.3;;;;;;;13.64;48.80762;955.9194;;;;
2020/03/27 12:22:30;;;;;;;16.4;5.8;;;;;;;13.62;47.57813;955.9753;;;;
2020/03/27 12:24:55;;;;;;;20.8;6;;;;;;;13.68;48.79102;955.9319;;;;
2020/03/27 12:27:21;;;;;;;21.3;6.3;;;;;;;13.74;48.47266;955.9304;;;;
2020/03/27 12:29:46;;;;;;;22.1;6.5;;;;;;;13.87;47.96484;955.9172;;;;
2020/03/27 12:32:11;;;;;;;21.5;6.5;;;;;;;13.86;48.15039;955.8254;;;;
2020/03/27 12:34:36;;;;;;;19.6;6;;;;;;;14.12;47.51758;955.7936;;;;
2020/03/27 12:37:01;;;;;;;20.3;6.1;;;;;;;14.05;47.91504;955.7992;;;;
2020/03/27 12:39:26;;;;;;;17.2;6;;;;;;;14.1;48.53516;955.7444;;;;
2020/03/27 12:41:51;;;;;;;22.4;7.4;;;;;;;14.38;47.7666;955.7659;;;;
2020/03/27 12:44:23;;;;;;;19.9;6.1;;;;;;;14.41;47.08301;955.8414;;;;
2020/03/27 12:46:46;;;;;;;20.9;6.3;;;;;;;14.22;46.72656;955.7967;;;;
2020/03/27 12:49:06;;;;;;;18.8;6.3;;;;;;;14.48;46.52246;955.8315;;;;
2020/03/27 12:51:31;;;;;;;21.3;6.2;;;;;;;14.55;46.98242;955.7586;;;;
2020/03/27 12:53:56;;;;;;;22.2;6.3;;;;;;;14.32;47.31738;955.8514;;;;
2020/03/27 12:56:22;;;;;;;21.5;6.3;;;;;;;14.57;48.27441;955.757;;;;
2020/03/27 12:58:47;;;;;;;17;5.8;;;;;;;14.5;47.08203;955.7673;;;;
2020/03/27 13:01:12;;;;;;;19.9;6.1;;;;;;;14.71;46.15234;955.7301;;;;
2020/03/27 13:03:37;;;;;;;20.9;6;;;;;;;14.53;46.7832;955.6922;;;;
2020/03/27 13:06:02;;;;;;;19.8;6;;;;;;;14.38;46.83594;955.6381;;;;
2020/03/27 13:08:27;;;;;;;16.1;5.3;;;;;;;14.45;47.30762;955.6133;;;;
2020/03/27 13:10:52;;;;;;;18.7;6;;;;;;;14.68;47.37988;955.5834;;;;
2020/03/27 13:13:17;;;;;;;16.7;5.5;;;;;;;14.74;46.66699;955.5381;;;;
2020/03/27 13:15:42;;;;;;;18.4;5.9;;;;;;;14.61;47.50098;955.5641;;;;
2020/03/27 13:18:08;;;;;;;21.4;6.1;;;;;;;14.84;47.18848;955.5551;;;;
2020/03/27 13:20:33;;;;;;;15.8;6.1;;;;;;;14.55;47.78516;955.4807;;;;
2020/03/27 13:22:58;;;;;;;15.9;5.9;;;;;;;14.9;47.36914;955.4906;;;;
2020/03/27 13:25:23;;;;;;;19;6;;;;;;;15;46.75195;955.3862;;;;
2020/03/27 13:27:48;;;;;;;18.5;5.6;;;;;;;15.19;45.95898;955.4374;;;;
2020/03/27 13:30:13;;;;;;;21;5.8;;;;;;;15.21;46.23828;955.3933;;;;
2020/03/27 13:32:38;;;;;;;20.9;6.3;;;;;;;15.22;45.92676;955.4135;;;;
2020/03/27 13:35:03;;;;;;;23.5;6.6;;;;;;;15.15;46.20996;955.3837;;;;
2020/03/27 13:37:29;;;;;;;19;5.9;;;;;;;15.17;46.1543;955.3286;;;;
2020/03/27 13:41:26;;;;;;;17.6;6.2;;;;;;;15.16;46.07227;955.4721;;;;
2020/03/27 13:43:51;;;;;;;14.7;5.6;;;;;;;15.18;45.73535;955.4533;;;;
2020/03/27 13:46:16;;;;;;;15.5;5.7;;;;;;;15.18;46.24707;955.4164;;;;
2020/03/27 13:48:42;;;;;;;17.3;5.4;;;;;;;15.21;47.06543;955.3315;;;;
2020/03/27 13:51:07;;;;;;;13.6;5.2;;;;;;;15.21;45.83105;955.3621;;;;
2020/03/27 13:53:32;;;;;;;18.6;5.8;;;;;;;15.26;45.58105;955.3412;;;;
2020/03/27 13:55:57;;;;;;;16.8;5.8;;;;;;;15.13;46.62598;955.291;;;;
2020/03/27 13:58:22;;;;;;;21.9;5.6;;;;;;;15.18;46.50293;955.2794;;;;
2020/03/27 14:00:47;;;;;;;17.4;5.7;;;;;;;15.09;46.26172;955.2683;;;;
2020/03/27 14:03:12;;;;;;;17.1;5.5;;;;;;;15.16;46.33887;955.2358;;;;
2020/03/27 14:05:37;;;;;;;18.4;5.8;;;;;;;15.02;47.13672;955.2385;;;;
2020/03/27 14:08:02;;;;;;;21.3;5.7;;;;;;;15.07;46.2373;955.2502;;;;
2020/03/27 14:10:27;;;;;;;15.8;5.1;;;;;;;15.11;46.1709;955.2166;;;;
2020/03/27 14:12:52;;;;;;;20.8;6.1;;;;;;;14.92;46.80176;955.2747;;;;
2020/03/27 14:15:17;;;;;;;22.6;5.6;;;;;;;15.13;46.75293;955.222;;;;
2020/03/27 14:17:43;;;;;;;23.4;6.1;;;;;;;15.04;47.41895;955.2601;;;;
2020/03/27 14:20:08;;;;;;;19.4;5.4;;;;;;;15.34;45.19336;955.2642;;;;
2020/03/27 14:22:33;;;;;;;24.4;6.4;;;;;;;15.14;45.47559;955.2484;;;;
2020/03/27 14:24:58;;;;;;;18.9;5.9;;;;;;;15.32;45.19336;955.2506;;;;
2020/03/27 14:27:23;;;;;;;20.1;5.9;;;;;;;15.46;45.31152;955.132;;;;
2020/03/27 14:29:48;;;;;;;25.8;6.4;;;;;;;15.42;46.12109;955.0881;;;;
2020/03/27 14:32:13;;;;;;;23;5.9;;;;;;;15.59;44.96387;955.1526;;;;
2020/03/27 14:34:38;;;;;;;21.4;5.3;;;;;;;15.66;44.26172;955.1626;;;;